Time,TemperatureF,DewpointF,PressureIn,WindDirection,WindDirectionDegrees,WindSpeedMPH,WindSpeedGustMPH,Humidity,HourlyPrecipIn,Conditions,Clouds,dailyrainin,SoftwareType,DateUTC
2013-07-10 00:01:00,69.0,66.0,29.96,ENE,78,0.0,1.0,90,0.00,,,0.00,,2013-07-10 04:01:00,
2013-07-10 00:11:00,69.0,66.0,29.96,ENE,78,0.0,1.0,90,0.00,,,0.00,,2013-07-10 04:11:00,
2013-07-10 00:22:00,69.0,66.0,29.96,ENE,78,0.0,1.0,90,0.00,,,0.00,,2013-07-10 04:22:00,
2013-07-10 00:33:00,69.0,66.0,29.96,East,98,0.0,0.0,90,0.00,,,0.00,,2013-07-10 04:33:00,
2013-07-10 00:43:00,69.0,66.0,29.96,East,98,0.0,0.0,90,0.00,,,0.00,,2013-07-10 04:43:00,
2013-07-10 00:52:00,69.0,66.0,29.96,East,98,0.0,1.0,91,0.00,,,0.00,,2013-07-10 04:52:00,
2013-07-10 01:02:00,69.0,66.0,29.95,NW,319,0.0,2.0,90,0.00,,,0.00,,2013-07-10 05:02:00,
2013-07-10 01:12:00,69.0,66.0,29.95,NW,319,0.0,2.0,90,0.00,,,0.00,,2013-07-10 05:12:00,
2013-07-10 01:22:00,69.0,66.0,29.94,North,355,0.0,2.0,91,0.00,,,0.00,,2013-07-10 05:22:00,
2013-07-10 01:32:00,69.0,66.0,29.94,North,355,0.0,2.0,91,0.00,,,0.00,,2013-07-10 05:32:00,
2013-07-10 01:42:00,69.0,66.0,29.94,North,355,0.0,2.0,91,0.00,,,0.00,,2013-07-10 05:42:00,
2013-07-10 01:53:00,69.0,66.0,29.94,North,355,0.0,3.0,90,0.00,,,0.00,,2013-07-10 05:53:00,
2013-07-10 02:01:00,68.0,65.0,29.94,North,355,1.0,3.0,90,0.00,,,0.00,,2013-07-10 06:01:00,
2013-07-10 02:11:00,68.0,65.0,29.94,North,355,1.0,3.0,90,0.00,,,0.00,,2013-07-10 06:11:00,
2013-07-10 02:22:00,68.0,65.0,29.93,North,360,1.0,3.0,90,0.00,,,0.00,,2013-07-10 06:22:00,
2013-07-10 02:32:00,68.0,65.0,29.93,NNE,30,1.0,3.0,90,0.00,,,0.00,,2013-07-10 06:32:00,
2013-07-10 02:42:00,68.0,65.0,29.93,NNE,30,1.0,3.0,90,0.00,,,0.00,,2013-07-10 06:42:00,
2013-07-10 02:52:00,68.0,65.0,29.92,North,360,0.0,3.0,90,0.00,,,0.00,,2013-07-10 06:52:00,
2013-07-10 03:01:00,68.0,65.0,29.91,North,9,1.0,3.0,91,0.00,,,0.00,,2013-07-10 07:01:00,
2013-07-10 03:12:00,68.0,65.0,29.91,North,9,1.0,3.0,91,0.00,,,0.00,,2013-07-10 07:12:00,
2013-07-10 03:22:00,67.0,65.0,29.91,NNE,16,0.0,2.0,92,0.00,,,0.00,,2013-07-10 07:22:00,
2013-07-10 03:33:00,67.0,65.0,29.91,NNE,27,1.0,3.0,92,0.00,,,0.00,,2013-07-10 07:33:00,
2013-07-10 03:43:00,67.0,65.0,29.91,NNE,27,1.0,3.0,92,0.00,,,0.00,,2013-07-10 07:43:00,
2013-07-10 03:53:00,67.0,65.0,29.90,NNE,27,0.0,2.0,93,0.00,,,0.00,,2013-07-10 07:53:00,
2013-07-10 04:02:00,67.0,65.0,29.90,NNE,27,0.0,2.0,93,0.00,,,0.00,,2013-07-10 08:02:00,
2013-07-10 04:12:00,67.0,65.0,29.90,NNE,27,0.0,2.0,93,0.00,,,0.00,,2013-07-10 08:12:00,
2013-07-10 04:23:00,67.0,65.0,29.90,North,360,0.0,4.0,93,0.00,,,0.00,,2013-07-10 08:23:00,
2013-07-10 04:33:00,67.0,65.0,29.91,North,360,0.0,0.0,93,0.00,,,0.00,,2013-07-10 08:33:00,
2013-07-10 04:42:00,67.0,65.0,29.91,North,360,0.0,0.0,93,0.00,,,0.00,,2013-07-10 08:42:00,
2013-07-10 04:53:00,67.0,65.0,29.90,NNE,19,0.0,3.0,93,0.00,,,0.00,,2013-07-10 08:53:00,
2013-07-10 05:02:00,67.0,65.0,29.90,NNE,19,0.0,3.0,94,0.00,,,0.00,,2013-07-10 09:02:00,
2013-07-10 05:12:00,67.0,65.0,29.90,NNE,19,0.0,3.0,94,0.00,,,0.00,,2013-07-10 09:12:00,
2013-07-10 05:32:00,67.0,65.0,29.89,NE,36,0.0,2.0,94,0.00,,,0.00,,2013-07-10 09:32:00,
2013-07-10 05:43:00,67.0,65.0,29.90,NE,36,0.0,2.0,94,0.00,,,0.00,,2013-07-10 09:43:00,
2013-07-10 05:53:00,67.0,65.0,29.90,NE,36,0.0,3.0,94,0.00,,,0.00,,2013-07-10 09:53:00,
2013-07-10 06:01:00,67.0,65.0,29.90,NE,36,0.0,2.0,94,0.00,,,0.00,,2013-07-10 10:01:00,
2013-07-10 06:13:00,67.0,65.0,29.90,NE,36,0.0,2.0,94,0.00,,,0.00,,2013-07-10 10:13:00,
2013-07-10 06:51:00,-999.0,-99.9,29.89,NE,36,1.0,3.0,-999,-99.99,,,-99.99,,2013-07-10 10:51:00,
2013-07-10 07:00:00,-999.0,-99.9,29.89,North,5,0.0,3.0,-999,-99.99,,,-99.99,,2013-07-10 11:00:00,
2013-07-10 07:11:00,66.0,65.0,29.90,North,5,0.0,2.0,95,0.00,,,0.00,,2013-07-10 11:11:00,
2013-07-10 07:23:00,66.0,65.0,29.89,North,5,0.0,2.0,95,0.00,,,0.00,,2013-07-10 11:23:00,
2013-07-10 07:43:00,67.0,66.0,29.89,NNW,345,0.0,1.0,95,0.00,,,0.00,,2013-07-10 11:43:00,
2013-07-10 08:02:00,67.0,66.0,29.89,NNE,19,0.0,3.0,95,0.00,,,0.00,,2013-07-10 12:02:00,
2013-07-10 08:11:00,67.0,66.0,29.89,NNE,19,0.0,3.0,95,0.00,,,0.00,,2013-07-10 12:11:00,
2013-07-10 08:22:00,67.0,66.0,29.89,North,355,0.0,1.0,96,0.00,,,0.00,,2013-07-10 12:22:00,
2013-07-10 08:33:00,67.0,66.0,29.89,North,355,0.0,1.0,96,0.00,,,0.00,,2013-07-10 12:33:00,
2013-07-10 08:43:00,67.0,66.0,29.88,North,355,0.0,3.0,96,0.00,,,0.00,,2013-07-10 12:43:00,
2013-07-10 08:53:00,67.0,66.0,29.88,North,355,0.0,3.0,96,0.00,,,0.00,,2013-07-10 12:53:00,
2013-07-10 09:01:00,68.0,67.0,29.87,NW,320,0.0,2.0,96,0.00,,,0.00,,2013-07-10 13:01:00,
2013-07-10 09:12:00,68.0,67.0,29.87,NW,320,0.0,2.0,96,0.00,,,0.00,,2013-07-10 13:12:00,
2013-07-10 09:22:00,68.0,67.0,29.87,NW,307,0.0,3.0,95,0.00,,,0.00,,2013-07-10 13:22:00,
2013-07-10 09:32:00,68.0,67.0,29.87,SW,232,0.0,3.0,95,0.00,,,0.00,,2013-07-10 13:32:00,
2013-07-10 09:43:00,68.0,67.0,29.87,SW,232,0.0,3.0,95,0.00,,,0.00,,2013-07-10 13:43:00,
2013-07-10 09:52:00,68.0,67.0,29.86,SW,223,0.0,3.0,96,0.00,,,0.00,,2013-07-10 13:52:00,
2013-07-10 10:02:00,68.0,67.0,29.86,WSW,242,0.0,3.0,95,0.00,,,0.00,,2013-07-10 14:02:00,
2013-07-10 10:12:00,68.0,67.0,29.86,WSW,242,0.0,3.0,95,0.00,,,0.00,,2013-07-10 14:12:00,
2013-07-10 10:43:00,69.0,68.0,29.85,NW,309,1.0,3.0,95,0.00,,,0.00,,2013-07-10 14:43:00,
2013-07-10 10:53:00,69.0,67.0,29.85,SE,131,0.0,3.0,94,0.00,,,0.00,,2013-07-10 14:53:00,
2013-07-10 11:01:00,70.0,68.0,29.85,West,278,0.0,3.0,95,0.00,,,0.00,,2013-07-10 15:01:00,
2013-07-10 11:11:00,70.0,68.0,29.85,West,278,0.0,3.0,95,0.00,,,0.00,,2013-07-10 15:11:00,
2013-07-10 11:42:00,71.0,69.0,29.84,SSW,202,0.0,4.0,93,0.00,,,0.00,,2013-07-10 15:42:00,
2013-07-10 11:52:00,72.0,70.0,29.83,North,5,1.0,3.0,93,0.00,,,0.00,,2013-07-10 15:52:00,
2013-07-10 12:02:00,72.0,70.0,29.83,North,5,1.0,3.0,93,0.00,,,0.00,,2013-07-10 16:02:00,
2013-07-10 12:11:00,72.0,70.0,29.83,North,351,0.0,3.0,92,0.00,,,0.00,,2013-07-10 16:11:00,
2013-07-10 12:33:00,73.0,71.0,29.83,South,169,0.0,2.0,92,0.00,,,0.00,,2013-07-10 16:33:00,
2013-07-10 12:44:00,73.0,70.0,29.82,SSE,161,0.0,2.0,91,0.01,,,0.01,,2013-07-10 16:44:00,
2013-07-10 12:53:00,74.0,71.0,29.81,WNW,299,1.0,4.0,90,0.01,,,0.01,,2013-07-10 16:53:00,
2013-07-10 13:12:00,75.0,72.0,29.80,WSW,244,0.0,5.0,90,0.01,,,0.01,,2013-07-10 17:12:00,
2013-07-10 13:23:00,77.0,73.0,29.79,NW,311,1.0,5.0,88,0.01,,,0.01,,2013-07-10 17:23:00,
2013-07-10 13:32:00,77.0,73.0,29.79,NW,311,1.0,5.0,88,0.01,,,0.01,,2013-07-10 17:32:00,
2013-07-10 13:43:00,79.0,73.0,29.78,East,85,0.0,3.0,81,0.00,,,0.01,,2013-07-10 17:43:00,
2013-07-10 13:53:00,79.0,73.0,29.78,East,85,0.0,3.0,81,0.00,,,0.01,,2013-07-10 17:53:00,
2013-07-10 14:02:00,83.0,75.0,29.75,SW,236,3.0,6.0,77,0.00,,,0.01,,2013-07-10 18:02:00,
2013-07-10 14:11:00,83.0,75.0,29.75,SW,236,3.0,6.0,77,0.00,,,0.01,,2013-07-10 18:11:00,
2013-07-10 14:22:00,83.0,75.0,29.75,SW,236,3.0,6.0,77,0.00,,,0.01,,2013-07-10 18:22:00,
2013-07-10 14:44:00,83.0,75.0,29.73,ESE,107,0.0,3.0,78,0.00,,,0.01,,2013-07-10 18:44:00,
2013-07-10 14:53:00,83.0,75.0,29.72,NE,45,1.0,3.0,77,0.00,,,0.01,,2013-07-10 18:53:00,
2013-07-10 15:02:00,84.0,76.0,29.72,NE,52,1.0,3.0,76,0.00,,,0.01,,2013-07-10 19:02:00,
2013-07-10 15:11:00,84.0,76.0,29.72,NE,52,1.0,3.0,76,0.00,,,0.01,,2013-07-10 19:11:00,
2013-07-10 15:22:00,82.0,77.0,29.73,SSW,192,2.0,5.0,85,0.15,,,0.16,,2013-07-10 19:22:00,
2013-07-10 15:32:00,79.0,75.0,29.70,NNE,32,3.0,6.0,88,0.53,,,0.54,,2013-07-10 19:32:00,
2013-07-10 15:42:00,79.0,75.0,29.70,NNE,32,3.0,6.0,88,0.53,,,0.54,,2013-07-10 19:42:00,
2013-07-10 15:53:00,79.0,76.0,29.70,NW,313,0.0,2.0,92,0.53,,,0.54,,2013-07-10 19:53:00,
2013-07-10 16:02:00,79.0,77.0,29.70,NNW,346,0.0,2.0,93,0.53,,,0.54,,2013-07-10 20:02:00,
2013-07-10 16:11:00,79.0,77.0,29.70,NNW,346,0.0,2.0,93,0.53,,,0.54,,2013-07-10 20:11:00,
2013-07-10 16:22:00,79.0,77.0,29.70,NNW,346,0.0,1.0,93,0.37,,,0.54,,2013-07-10 20:22:00,
2013-07-10 16:32:00,79.0,77.0,29.69,NNW,346,0.0,1.0,95,0.00,,,0.54,,2013-07-10 20:32:00,
2013-07-10 16:43:00,79.0,77.0,29.69,NNW,346,0.0,1.0,95,0.00,,,0.54,,2013-07-10 20:43:00,
2013-07-10 16:52:00,79.0,77.0,29.68,NNW,346,0.0,1.0,95,0.00,,,0.54,,2013-07-10 20:52:00,
2013-07-10 17:01:00,80.0,78.0,29.68,NNE,13,0.0,2.0,94,0.00,,,0.54,,2013-07-10 21:01:00,
2013-07-10 17:12:00,80.0,78.0,29.68,NNE,13,0.0,2.0,94,0.00,,,0.54,,2013-07-10 21:12:00,
2013-07-10 17:22:00,79.0,77.0,29.68,NNE,13,0.0,3.0,93,0.00,,,0.54,,2013-07-10 21:22:00,
2013-07-10 17:32:00,79.0,77.0,29.67,NNE,13,0.0,1.0,94,0.00,,,0.54,,2013-07-10 21:32:00,
2013-07-10 17:42:00,79.0,77.0,29.67,NNE,13,0.0,1.0,94,0.00,,,0.54,,2013-07-10 21:42:00,
2013-07-10 17:52:00,79.0,77.0,29.67,ENE,75,0.0,2.0,94,0.00,,,0.54,,2013-07-10 21:52:00,
2013-07-10 18:01:00,79.0,77.0,29.67,ENE,75,0.0,1.0,94,0.00,,,0.54,,2013-07-10 22:01:00,
2013-07-10 18:11:00,79.0,77.0,29.67,ENE,75,0.0,1.0,94,0.00,,,0.54,,2013-07-10 22:11:00,
2013-07-10 18:21:00,78.0,75.0,29.67,SE,138,1.0,7.0,91,0.02,,,0.56,,2013-07-10 22:21:00,
2013-07-10 18:33:00,76.0,74.0,29.67,SSE,159,0.0,3.0,94,0.05,,,0.59,,2013-07-10 22:33:00,
2013-07-10 18:43:00,76.0,74.0,29.67,SSE,159,0.0,3.0,94,0.05,,,0.59,,2013-07-10 22:43:00,
2013-07-10 18:53:00,76.0,74.0,29.67,SSE,159,0.0,2.0,95,0.05,,,0.59,,2013-07-10 22:53:00,
2013-07-10 19:01:00,77.0,76.0,29.67,SSW,198,0.0,2.0,96,0.06,,,0.60,,2013-07-10 23:01:00,
2013-07-10 19:11:00,77.0,76.0,29.67,SSW,198,0.0,2.0,96,0.06,,,0.60,,2013-07-10 23:11:00,
2013-07-10 19:22:00,77.0,76.0,29.67,SW,219,0.0,2.0,96,0.04,,,0.60,,2013-07-10 23:22:00,
2013-07-10 19:32:00,77.0,76.0,29.67,SSE,165,0.0,1.0,96,0.01,,,0.60,,2013-07-10 23:32:00,
2013-07-10 19:43:00,77.0,76.0,29.67,SSE,165,0.0,1.0,96,0.01,,,0.60,,2013-07-10 23:43:00,
2013-07-10 19:52:00,77.0,76.0,29.67,South,169,0.0,1.0,96,0.01,,,0.60,,2013-07-10 23:52:00,
2013-07-10 20:01:00,76.0,75.0,29.66,South,169,0.0,2.0,96,0.00,,,0.60,,2013-07-11 00:01:00,
2013-07-10 20:11:00,76.0,75.0,29.66,South,169,0.0,2.0,96,0.00,,,0.60,,2013-07-11 00:11:00,
2013-07-10 20:22:00,76.0,75.0,29.67,SSE,165,0.0,3.0,96,0.00,,,0.60,,2013-07-11 00:22:00,
2013-07-10 20:32:00,76.0,75.0,29.67,SSE,165,0.0,3.0,96,0.00,,,0.60,,2013-07-11 00:32:00,
2013-07-10 20:42:00,76.0,75.0,29.67,SSE,159,0.0,2.0,96,0.00,,,0.60,,2013-07-11 00:42:00,
2013-07-10 20:52:00,76.0,75.0,29.67,SSE,159,0.0,2.0,96,0.00,,,0.60,,2013-07-11 00:52:00,
2013-07-10 21:01:00,76.0,75.0,29.67,South,171,0.0,3.0,96,0.00,,,0.60,,2013-07-11 01:01:00,
2013-07-10 21:11:00,76.0,75.0,29.67,South,171,0.0,3.0,96,0.00,,,0.60,,2013-07-11 01:11:00,
2013-07-10 21:22:00,76.0,75.0,29.68,SW,225,0.0,2.0,96,0.00,,,0.60,,2013-07-11 01:22:00,
2013-07-10 21:32:00,76.0,75.0,29.68,SW,225,0.0,2.0,96,0.00,,,0.60,,2013-07-11 01:32:00,
2013-07-10 21:43:00,75.0,74.0,29.67,SW,216,0.0,2.0,96,0.00,,,0.60,,2013-07-11 01:43:00,
2013-07-10 21:52:00,75.0,74.0,29.67,South,186,0.0,3.0,97,0.00,,,0.60,,2013-07-11 01:52:00,
2013-07-10 22:02:00,75.0,74.0,29.67,South,186,0.0,3.0,97,0.00,,,0.60,,2013-07-11 02:02:00,
2013-07-10 22:11:00,75.0,74.0,29.68,South,169,0.0,1.0,97,0.00,,,0.60,,2013-07-11 02:11:00,
2013-07-10 22:22:00,75.0,74.0,29.68,South,169,0.0,1.0,97,0.00,,,0.60,,2013-07-11 02:22:00,
2013-07-10 22:32:00,75.0,74.0,29.68,South,169,0.0,1.0,97,0.00,,,0.60,,2013-07-11 02:32:00,
2013-07-10 22:43:00,75.0,74.0,29.67,South,169,0.0,1.0,97,0.00,,,0.60,,2013-07-11 02:43:00,
2013-07-10 22:53:00,75.0,74.0,29.68,South,169,0.0,0.0,97,0.00,,,0.60,,2013-07-11 02:53:00,
2013-07-10 23:02:00,75.0,74.0,29.68,South,169,0.0,0.0,97,0.00,,,0.60,,2013-07-11 03:02:00,
2013-07-10 23:11:00,75.0,74.0,29.68,South,169,0.0,1.0,97,0.00,,,0.60,,2013-07-11 03:11:00,
2013-07-10 23:22:00,75.0,74.0,29.68,South,169,0.0,1.0,97,0.00,,,0.60,,2013-07-11 03:22:00,
2013-07-10 23:33:00,74.0,73.0,29.67,SW,232,0.0,2.0,97,0.00,,,0.60,,2013-07-11 03:33:00,
2013-07-10 23:42:00,74.0,73.0,29.67,South,190,1.0,4.0,97,0.00,,,0.60,,2013-07-11 03:42:00,
2013-07-10 23:52:00,74.0,73.0,29.67,SSE,157,0.0,3.0,97,0.00,,,0.60,,2013-07-11 03:52:00,